Time;durP1;ratioP1;P1;durP2;ratioP2;P2;SDS_P1;SDS_P2;PMS_P1;PMS_P2;Temp;Humidity;BMP_temperature;BMP_pressure;BME280_temperature;BME280_humidity;BME280_pressure;Samples;Min_cycle;Max_cycle;Signal;HPM_P1;HPM_P2
2023/06/21 00:01:38;;;;;;;;;;;;;;;23.20;39.23;100143.31;4946984;28;98158;-75
2023/06/21 00:04:04;;;;;;;;;;;;;;;23.19;39.16;100144.50;4929913;28;98186;-76
2023/06/21 00:06:31;;;;;;;;;;;;;;;23.15;39.18;100152.66;4934386;28;98059;-66
2023/06/21 00:08:57;;;;;;;;;;;;;;;23.14;39.31;100153.78;4928634;28;99140;-66
2023/06/21 00:11:24;;;;;;;;;;;;;;;23.12;39.29;100152.56;4931889;28;98767;-67
2023/06/21 00:13:54;;;;;;;;;;;;;;;23.10;39.06;100154.88;4944864;28;99644;-76
2023/06/21 00:16:21;;;;;;;;;;;;;;;23.09;39.22;100151.34;4931356;28;98188;-76
2023/06/21 00:18:48;;;;;;;;;;;;;;;23.08;39.06;100158.00;4946630;28;99404;-73
2023/06/21 00:21:14;;;;;;;;;;;;;;;23.07;39.23;100153.66;4949448;28;98106;-66
2023/06/21 00:23:42;;;;;;;;;;;;;;;23.07;39.13;100150.09;4932877;28;98022;-76
2023/06/21 00:26:09;;;;;;;;;;;;;;;23.05;39.23;100150.47;4964213;28;98199;-76
2023/06/21 00:28:35;;;;;;;;;;;;;;;23.04;39.16;100154.38;4931811;28;97885;-76
2023/06/21 00:31:03;;;;;;;;;;;;;;;23.04;39.19;100146.13;4944478;28;98345;-76
2023/06/21 00:33:28;;;;;;;;;;;;;;;23.03;39.16;100148.09;4948753;28;97914;-66
2023/06/21 00:35:55;;;;;;;;;;;;;;;23.02;39.28;100140.97;4928085;28;98285;-66
2023/06/21 00:38:21;;;;;;;;;;;;;;;23.02;39.09;100140.19;4940649;28;99441;-66
2023/06/21 00:40:49;;;;;;;;;;;;;;;23.02;39.31;100140.19;4941894;28;98301;-75
2023/06/21 00:43:16;;;;;;;;;;;;;;;22.99;39.31;100136.22;4946510;28;97977;-76
2023/06/21 00:45:48;;;;;;;;;;;;;;;22.99;39.11;100130.72;4930511;28;97950;-76
2023/06/21 00:48:14;;;;;;;;;;;;;;;22.99;39.32;100130.72;4933051;28;98176;-76
2023/06/21 00:50:41;;;;;;;;;;;;;;;22.99;39.09;100140.88;4931113;28;98969;-66
2023/06/21 00:53:08;;;;;;;;;;;;;;;22.97;39.43;100135.75;4946707;28;98526;-67
2023/06/21 00:55:34;;;;;;;;;;;;;;;22.96;39.19;100133.38;4923465;28;98449;-75
2023/06/21 00:58:01;;;;;;;;;;;;;;;22.96;39.15;100136.91;4922436;28;99586;-66
2023/06/21 01:00:26;;;;;;;;;;;;;;;22.96;39.32;100138.88;4926239;28;98095;-66
2023/06/21 01:02:56;;;;;;;;;;;;;;;22.97;39.34;100143.22;4930820;28;99010;-66
2023/06/21 01:05:24;;;;;;;;;;;;;;;22.97;39.15;100143.22;4929102;28;98184;-76
2023/06/21 01:08:19;;;;;;;;;;;;;;;22.98;39.19;100156.59;4947311;28;98222;-76
2023/06/21 01:11:13;;;;;;;;;;;;;;;22.97;39.50;100168.72;4946279;27;97904;-67
2023/06/21 01:13:58;;;;;;;;;;;;;;;22.95;39.41;100175.72;4937944;28;98182;-76
2023/06/21 01:16:25;;;;;;;;;;;;;;;22.93;39.22;100195.34;4976052;28;98207;-66
2023/06/21 01:18:52;;;;;;;;;;;;;;;22.90;39.30;100201.50;4930447;28;98084;-66
2023/06/21 01:21:22;;;;;;;;;;;;;;;22.88;39.30;100239.56;4931608;28;98013;-75
2023/06/21 01:24:03;;;;;;;;;;;;;;;22.87;39.42;100256.38;4962687;28;98144;-66
2023/06/21 01:27:06;;;;;;;;;;;;;;;22.84;39.52;100263.41;4946174;28;99010;-66
2023/06/21 01:29:34;;;;;;;;;;;;;;;22.81;39.52;100279.78;4956645;28;99109;-76
2023/06/21 01:32:02;;;;;;;;;;;;;;;22.79;39.51;100319.41;4949280;28;98198;-66
2023/06/21 01:34:29;;;;;;;;;;;;;;;22.77;39.43;100320.91;4944280;28;98095;-67
2023/06/21 01:36:55;;;;;;;;;;;;;;;22.74;39.54;100311.41;4929219;28;98156;-66
2023/06/21 01:39:31;;;;;;;;;;;;;;;22.71;39.66;100314.06;4941042;28;101916;-77
2023/06/21 01:41:58;;;;;;;;;;;;;;;22.69;39.47;100308.13;4942900;28;98164;-67
2023/06/21 01:44:25;;;;;;;;;;;;;;;22.67;39.44;100302.19;4926441;28;99319;-76
2023/06/21 01:46:51;;;;;;;;;;;;;;;22.63;39.44;100290.31;4944845;28;98445;-68
2023/06/21 01:49:19;;;;;;;;;;;;;;;22.61;39.68;100274.19;4927699;28;98504;-68
2023/06/21 01:51:46;;;;;;;;;;;;;;;22.58;39.67;100274.88;4940291;28;98165;-68
2023/06/21 01:54:15;;;;;;;;;;;;;;;22.54;39.69;100276.75;4928021;28;98237;-77
2023/06/21 01:56:42;;;;;;;;;;;;;;;22.52;39.72;100279.84;4926974;28;99717;-68
2023/06/21 01:59:09;;;;;;;;;;;;;;;22.51;39.86;100280.19;4929569;28;97942;-76
2023/06/21 02:01:38;;;;;;;;;;;;;;;22.49;39.73;100285.25;4930951;28;98163;-77
2023/06/21 02:04:04;;;;;;;;;;;;;;;22.47;39.84;100285.59;4940704;28;98842;-76
2023/06/21 02:06:31;;;;;;;;;;;;;;;22.46;39.85;100296.94;4942883;28;98458;-68
2023/06/21 02:09:01;;;;;;;;;;;;;;;22.44;39.67;100275.31;4926561;28;100953;-68
2023/06/21 02:11:27;;;;;;;;;;;;;;;22.40;39.94;100271.69;4943512;28;98025;-68
2023/06/21 02:13:54;;;;;;;;;;;;;;;22.35;39.96;100263.69;4924513;28;98276;-68
2023/06/21 02:16:30;;;;;;;;;;;;;;;22.27;39.98;100278.38;4929009;28;98103;-76
2023/06/21 02:18:56;;;;;;;;;;;;;;;22.17;39.90;100284.38;4940729;28;98108;-68
2023/06/21 02:21:23;;;;;;;;;;;;;;;22.09;40.02;100279.81;4946583;28;99601;-76
2023/06/21 02:23:50;;;;;;;;;;;;;;;22.00;40.14;100271.72;4940514;28;98093;-76
2023/06/21 02:26:17;;;;;;;;;;;;;;;21.94;40.08;100265.69;4931324;28;98055;-76
2023/06/21 02:28:43;;;;;;;;;;;;;;;21.90;40.17;100253.81;4942667;28;98837;-76
2023/06/21 02:31:10;;;;;;;;;;;;;;;21.86;40.26;100250.16;4962297;28;99033;-76
2023/06/21 02:33:36;;;;;;;;;;;;;;;21.80;40.19;100244.09;4939301;28;99526;-76
2023/06/21 02:36:03;;;;;;;;;;;;;;;21.79;40.25;100253.50;4926659;28;98152;-67
2023/06/21 02:38:31;;;;;;;;;;;;;;;21.74;40.35;100256.50;4928316;28;98282;-76
2023/06/21 02:40:58;;;;;;;;;;;;;;;21.71;40.35;100267.34;4927983;28;98178;-67
2023/06/21 02:43:24;;;;;;;;;;;;;;;21.69;40.32;100264.97;4926330;28;98150;-67
2023/06/21 02:45:51;;;;;;;;;;;;;;;21.68;40.38;100257.06;4940369;28;98284;-76
2023/06/21 02:48:17;;;;;;;;;;;;;;;21.69;40.10;100261.41;4945539;28;98882;-76
2023/06/21 02:50:44;;;;;;;;;;;;;;;21.69;40.30;100258.66;4943083;28;98058;-76
2023/06/21 02:53:10;;;;;;;;;;;;;;;21.70;40.33;100269.31;4941387;28;98522;-76
2023/06/21 02:55:37;;;;;;;;;;;;;;;21.71;40.29;100276.38;4929432;28;98256;-67
2023/06/21 02:58:03;;;;;;;;;;;;;;;21.74;40.37;100280.38;4927942;28;98199;-76
2023/06/21 03:00:31;;;;;;;;;;;;;;;21.74;40.33;100286.66;4922140;28;98215;-67
2023/06/21 03:03:00;;;;;;;;;;;;;;;21.76;40.25;100292.59;4920294;28;98085;-76
2023/06/21 03:05:29;;;;;;;;;;;;;;;21.77;40.37;100283.22;4930060;28;97988;-67
2023/06/21 03:08:00;;;;;;;;;;;;;;;21.78;40.32;100292.25;4930736;28;97910;-76
2023/06/21 03:10:27;;;;;;;;;;;;;;;21.76;40.45;100298.06;4958329;28;98211;-76
2023/06/21 03:12:57;;;;;;;;;;;;;;;21.75;40.35;100299.22;4919083;27;110548;-67
2023/06/21 03:15:23;;;;;;;;;;;;;;;21.76;40.51;100297.28;4944647;28;101364;-75
2023/06/21 03:17:50;;;;;;;;;;;;;;;21.74;40.46;100292.16;4925492;28;99734;-67
2023/06/21 03:20:16;;;;;;;;;;;;;;;21.71;40.52;100292.84;4920129;28;98095;-67
2023/06/21 03:22:43;;;;;;;;;;;;;;;21.69;40.69;100286.91;4944234;28;98247;-67
2023/06/21 03:25:10;;;;;;;;;;;;;;;21.69;40.52;100295.13;4925719;28;97993;-67
2023/06/21 03:27:37;;;;;;;;;;;;;;;21.68;40.70;100300.94;4943867;28;98559;-67
2023/06/21 03:30:07;;;;;;;;;;;;;;;21.68;40.49;100298.19;4917738;28;98269;-76
2023/06/21 03:32:34;;;;;;;;;;;;;;;21.68;40.52;100303.69;4925609;28;97976;-67
2023/06/21 03:35:01;;;;;;;;;;;;;;;21.67;40.66;100300.16;4928016;28;98063;-67
2023/06/21 03:37:29;;;;;;;;;;;;;;;21.68;40.45;100311.91;4943769;28;99919;-76
2023/06/21 03:39:55;;;;;;;;;;;;;;;21.67;40.57;100307.59;4928971;28;98083;-67
2023/06/21 03:42:22;;;;;;;;;;;;;;;21.67;40.55;100316.59;4921891;28;98114;-68
2023/06/21 03:44:48;;;;;;;;;;;;;;;21.68;40.70;100309.19;4928479;28;97892;-67
2023/06/21 03:47:15;;;;;;;;;;;;;;;21.70;40.56;100313.19;4930957;28;98766;-76
2023/06/21 03:49:42;;;;;;;;;;;;;;;21.72;40.52;100321.06;4927753;28;98115;-76
2023/06/21 03:52:08;;;;;;;;;;;;;;;21.73;40.56;100320.72;4926704;28;97953;-76
2023/06/21 03:54:34;;;;;;;;;;;;;;;21.77;40.56;100320.81;4927935;28;97866;-76
2023/06/21 03:57:02;;;;;;;;;;;;;;;21.80;40.57;100328.34;4926804;28;97831;-76
2023/06/21 03:59:29;;;;;;;;;;;;;;;21.84;40.52;100337.47;4942501;28;98515;-76
2023/06/21 04:01:55;;;;;;;;;;;;;;;21.89;40.64;100341.94;4928654;28;98091;-67
2023/06/21 04:04:24;;;;;;;;;;;;;;;21.93;40.59;100337.34;4928315;28;98102;-76
2023/06/21 04:06:51;;;;;;;;;;;;;;;21.96;40.50;100336.66;4929159;28;98010;-77
2023/06/21 04:09:18;;;;;;;;;;;;;;;21.98;40.48;100348.09;4924778;28;100021;-68
2023/06/21 04:11:45;;;;;;;;;;;;;;;22.01;40.47;100353.69;4928133;28;102139;-74
2023/06/21 04:14:11;;;;;;;;;;;;;;;22.02;40.47;100360.78;4926785;28;98133;-68
2023/06/21 04:16:37;;;;;;;;;;;;;;;22.06;40.58;100363.63;4926120;28;98042;-68
2023/06/21 04:19:04;;;;;;;;;;;;;;;22.09;40.40;100359.41;4944358;28;98259;-77
2023/06/21 04:21:32;;;;;;;;;;;;;;;22.12;40.55;100364.16;4921853;28;97972;-77
2023/06/21 04:23:58;;;;;;;;;;;;;;;22.13;40.48;100361.13;4926641;28;98171;-68
2023/06/21 04:26:28;;;;;;;;;;;;;;;22.15;40.45;100360.75;4956205;28;98295;-77
2023/06/21 04:28:54;;;;;;;;;;;;;;;22.14;40.40;100367.41;4943187;28;98818;-77
2023/06/21 04:31:21;;;;;;;;;;;;;;;22.14;40.51;100372.91;4922099;28;98047;-76
2023/06/21 04:33:48;;;;;;;;;;;;;;;22.15;40.57;100379.97;4926308;28;98281;-68
2023/06/21 04:36:17;;;;;;;;;;;;;;;22.15;40.75;100378.03;4918640;28;100601;-68
2023/06/21 04:38:48;;;;;;;;;;;;;;;22.17;40.67;100385.94;4939454;28;98607;-68
2023/06/21 04:41:15;;;;;;;;;;;;;;;22.17;40.65;100383.97;4926652;28;98469;-77
2023/06/21 04:43:42;;;;;;;;;;;;;;;22.20;40.61;100385.22;4915410;28;98375;-76
2023/06/21 04:46:08;;;;;;;;;;;;;;;22.23;40.46;100385.31;4922378;28;98488;-68
2023/06/21 04:48:34;;;;;;;;;;;;;;;22.28;40.52;100395.25;4927657;28;100716;-69
2023/06/21 04:51:01;;;;;;;;;;;;;;;22.34;40.36;100387.59;4921749;28;98339;-76
2023/06/21 04:53:29;;;;;;;;;;;;;;;22.39;40.41;100382.63;4943867;28;98271;-76
2023/06/21 04:55:58;;;;;;;;;;;;;;;22.46;40.57;100401.28;4901715;28;98426;-68
2023/06/21 04:58:25;;;;;;;;;;;;;;;22.50;40.46;100391.97;4943121;28;99111;-77
2023/06/21 05:00:52;;;;;;;;;;;;;;;22.58;40.48;100395.72;4927917;28;99106;-77
2023/06/21 05:03:18;;;;;;;;;;;;;;;22.65;40.26;100395.13;4928904;28;98015;-68
2023/06/21 05:05:45;;;;;;;;;;;;;;;22.73;40.35;100403.22;4953623;28;98228;-72
2023/06/21 05:08:11;;;;;;;;;;;;;;;22.84;40.13;100409.00;4929329;28;100162;-77
2023/06/21 05:10:38;;;;;;;;;;;;;;;22.94;40.11;100407.72;4944891;27;98163;-68
2023/06/21 05:13:04;;;;;;;;;;;;;;;23.04;40.24;100401.72;4927781;28;98554;-77
2023/06/21 05:15:31;;;;;;;;;;;;;;;23.22;40.05;100415.91;4941905;28;99118;-77
2023/06/21 05:17:58;;;;;;;;;;;;;;;23.38;39.79;100405.72;4927330;28;98065;-77
2023/06/21 05:20:24;;;;;;;;;;;;;;;23.56;39.83;100408.91;4933934;28;98375;-76
2023/06/21 05:22:52;;;;;;;;;;;;;;;23.75;39.53;100413.72;4932792;27;98111;-77
2023/06/21 05:25:19;;;;;;;;;;;;;;;23.94;39.56;100418.47;4949018;27;98033;-77
2023/06/21 05:27:45;;;;;;;;;;;;;;;24.09;39.36;100417.63;4948928;27;99380;-76
2023/06/21 05:30:12;;;;;;;;;;;;;;;24.29;39.32;100415.72;4931285;27;98301;-67
2023/06/21 05:32:38;;;;;;;;;;;;;;;24.49;39.21;100420.09;4930442;28;98032;-68
2023/06/21 05:35:04;;;;;;;;;;;;;;;24.70;39.01;100421.66;4947310;28;98355;-68
2023/06/21 05:37:31;;;;;;;;;;;;;;;24.89;39.12;100418.91;4931918;27;98044;-77
2023/06/21 05:40:00;;;;;;;;;;;;;;;25.11;38.87;100422.88;4947595;27;98063;-77
2023/06/21 05:42:27;;;;;;;;;;;;;;;25.34;38.82;100425.63;4933296;28;98163;-77
2023/06/21 05:44:54;;;;;;;;;;;;;;;25.60;38.70;100415.81;4930281;28;98267;-77
2023/06/21 05:47:20;;;;;;;;;;;;;;;25.88;38.74;100426.50;4933132;28;99085;-68
2023/06/21 05:49:48;;;;;;;;;;;;;;;26.51;38.29;100416.72;4931926;27;99917;-68
2023/06/21 05:52:15;;;;;;;;;;;;;;;26.74;38.33;100419.38;4931434;28;98362;-68
2023/06/21 05:54:43;;;;;;;;;;;;;;;27.00;38.40;100429.50;4935112;27;98207;-77
2023/06/21 05:57:09;;;;;;;;;;;;;;;27.31;38.36;100423.53;4931704;28;98590;-68
2023/06/21 05:59:36;;;;;;;;;;;;;;;27.65;38.21;100420.63;4946924;28;99761;-70
2023/06/21 06:02:02;;;;;;;;;;;;;;;28.05;38.27;100422.50;4933455;27;98311;-68
2023/06/21 06:04:29;;;;;;;;;;;;;;;28.47;38.05;100417.59;4928525;28;98080;-72
2023/06/21 06:06:56;;;;;;;;;;;;;;;28.90;38.11;100417.72;4944252;27;99254;-78
2023/06/21 06:09:23;;;;;;;;;;;;;;;29.43;38.09;100422.53;4949257;28;98117;-71
2023/06/21 06:11:50;;;;;;;;;;;;;;;30.28;37.30;100425.22;4934165;28;97963;-72
2023/06/21 06:14:17;;;;;;;;;;;;;;;33.12;34.20;100441.00;4933855;28;98359;-72
2023/06/21 06:16:44;;;;;;;;;;;;;;;32.34;35.42;100437.22;4929623;27;98158;-71
2023/06/21 06:19:13;;;;;;;;;;;;;;;32.24;35.94;100430.59;4932700;28;98601;-78
2023/06/21 06:21:41;;;;;;;;;;;;;;;32.26;36.32;100434.53;4948817;27;98202;-76
2023/06/21 06:24:07;;;;;;;;;;;;;;;32.60;36.79;100436.53;4921831;28;99546;-80
2023/06/21 06:26:34;;;;;;;;;;;;;;;33.42;36.41;100435.34;4925633;28;98254;-78
2023/06/21 06:29:02;;;;;;;;;;;;;;;35.29;34.68;100440.81;4925552;28;99712;-79
2023/06/21 06:31:29;;;;;;;;;;;;;;;34.89;35.34;100443.72;4951218;28;98183;-78
2023/06/21 06:33:56;;;;;;;;;;;;;;;34.92;35.30;100449.22;4935409;27;99861;-78
2023/06/21 06:36:22;;;;;;;;;;;;;;;35.58;35.01;100446.53;4934391;28;98942;-70
2023/06/21 06:38:52;;;;;;;;;;;;;;;35.49;35.20;100437.94;4932267;28;98212;-70
2023/06/21 06:41:19;;;;;;;;;;;;;;;35.07;35.59;100440.53;4946618;28;98157;-69
2023/06/21 06:43:45;;;;;;;;;;;;;;;35.04;35.91;100453.41;4923170;28;98294;-77
2023/06/21 06:46:14;;;;;;;;;;;;;;;34.99;35.93;100459.53;4930794;28;99739;-78
2023/06/21 06:48:40;;;;;;;;;;;;;;;35.03;35.91;100460.22;4933796;27;98585;-70
2023/06/21 06:51:07;;;;;;;;;;;;;;;35.04;35.83;100458.22;4931799;27;98832;-78
2023/06/21 06:53:33;;;;;;;;;;;;;;;35.01;35.99;100464.66;4930249;28;98033;-77
2023/06/21 06:55:59;;;;;;;;;;;;;;;35.14;36.10;100468.38;4930622;27;98202;-69
2023/06/21 06:58:27;;;;;;;;;;;;;;;35.46;35.59;100466.81;4942743;27;98310;-71
2023/06/21 07:00:56;;;;;;;;;;;;;;;35.90;35.25;100477.28;4929198;27;98208;-69
2023/06/21 07:03:23;;;;;;;;;;;;;;;36.27;35.01;100486.31;4943666;28;98683;-71
2023/06/21 07:05:49;;;;;;;;;;;;;;;36.57;34.73;100493.50;4930046;27;98139;-78
2023/06/21 07:08:16;;;;;;;;;;;;;;;36.98;34.26;100493.94;4934969;28;99683;-70
2023/06/21 07:10:42;;;;;;;;;;;;;;;37.41;34.42;100495.41;4931113;27;99505;-70
2023/06/21 07:13:08;;;;;;;;;;;;;;;37.76;34.45;100507.47;4931248;28;100072;-70
2023/06/21 07:15:35;;;;;;;;;;;;;;;38.01;34.22;100501.03;4926158;28;99477;-76
2023/06/21 07:18:02;;;;;;;;;;;;;;;38.10;34.46;100508.75;4933248;28;98000;-71
2023/06/21 07:20:29;;;;;;;;;;;;;;;38.03;34.40;100502.13;4926957;28;98492;-72
2023/06/21 07:22:56;;;;;;;;;;;;;;;38.15;34.58;100508.94;4948290;27;97961;-77
2023/06/21 07:25:24;;;;;;;;;;;;;;;38.32;33.83;100506.75;4929821;27;98388;-71
2023/06/21 07:27:50;;;;;;;;;;;;;;;38.52;34.05;100506.44;4944105;27;98097;-72
2023/06/21 07:30:17;;;;;;;;;;;;;;;38.69;34.26;100504.97;4950205;28;98649;-76
2023/06/21 07:32:46;;;;;;;;;;;;;;;38.88;33.86;100510.75;4923828;28;98401;-76
2023/06/21 07:35:13;;;;;;;;;;;;;;;39.09;33.76;100509.91;4930012;28;99696;-75
2023/06/21 07:37:39;;;;;;;;;;;;;;;39.22;33.88;100504.94;4934858;27;97897;-76
2023/06/21 07:40:06;;;;;;;;;;;;;;;39.42;33.85;100509.41;4939447;28;98141;-74
2023/06/21 07:42:33;;;;;;;;;;;;;;;39.67;33.38;100514.81;4929255;28;98121;-75
2023/06/21 07:45:03;;;;;;;;;;;;;;;39.98;33.58;100511.88;4945437;28;98945;-73
2023/06/21 07:47:30;;;;;;;;;;;;;;;40.27;33.42;100521.91;4922160;28;98119;-75
2023/06/21 07:49:56;;;;;;;;;;;;;;;40.81;32.83;100519.50;4943876;27;98205;-75
2023/06/21 07:52:22;;;;;;;;;;;;;;;41.33;32.63;100515.38;4942637;28;99603;-73
2023/06/21 07:54:49;;;;;;;;;;;;;;;41.90;32.59;100517.44;4930194;27;97899;-76
2023/06/21 07:57:18;;;;;;;;;;;;;;;42.38;32.26;100523.78;4935996;28;99031;-75
2023/06/21 07:59:45;;;;;;;;;;;;;;;42.41;32.48;100524.88;4946131;28;98247;-75
2023/06/21 08:02:18;;;;;;;;;;;;;;;43.09;32.08;100532.50;4929887;27;99502;-73
2023/06/21 08:04:46;;;;;;;;;;;;;;;43.45;31.82;100527.63;4931968;27;98117;-73
2023/06/21 08:07:14;;;;;;;;;;;;;;;43.97;31.56;100537.09;4930910;28;99842;-74
2023/06/21 08:09:40;;;;;;;;;;;;;;;44.54;31.06;100535.69;4926504;28;98587;-74
2023/06/21 08:12:06;;;;;;;;;;;;;;;43.37;32.38;100535.75;4940600;28;98413;-76
2023/06/21 08:14:33;;;;;;;;;;;;;;;43.98;31.84;100543.56;4928645;28;98144;-74
2023/06/21 08:16:59;;;;;;;;;;;;;;;42.60;33.34;100540.41;4930692;27;98020;-76
2023/06/21 08:19:26;;;;;;;;;;;;;;;42.37;32.99;100535.63;4932131;27;97937;-74
2023/06/21 08:21:52;;;;;;;;;;;;;;;43.28;32.49;100548.00;4928809;28;98134;-77
2023/06/21 08:24:18;;;;;;;;;;;;;;;44.54;31.22;100550.66;4930841;28;98135;-75
2023/06/21 08:26:44;;;;;;;;;;;;;;;45.45;30.74;100546.50;4942055;28;98003;-74
2023/06/21 08:29:11;;;;;;;;;;;;;;;46.20;30.21;100552.81;4924799;28;98555;-74
2023/06/21 08:31:37;;;;;;;;;;;;;;;46.90;30.07;100554.72;4933841;27;98218;-77
2023/06/21 08:34:04;;;;;;;;;;;;;;;47.50;30.02;100557.25;4932368;28;98650;-76
2023/06/21 08:36:30;;;;;;;;;;;;;;;47.57;29.93;100564.50;4932687;28;98069;-74
2023/06/21 08:38:56;;;;;;;;;;;;;;;47.99;29.98;100551.91;4934624;27;100385;-77
2023/06/21 08:41:21;;;;;;;;;;;;;;;48.43;29.97;100555.84;4932434;28;99485;-77
2023/06/21 08:43:48;;;;;;;;;;;;;;;48.88;29.74;100555.50;4933441;27;127853;-74
2023/06/21 08:46:14;;;;;;;;;;;;;;;48.35;30.17;100561.31;4929889;28;99909;-76
2023/06/21 08:48:40;;;;;;;;;;;;;;;48.16;30.33;100548.97;4929682;27;98271;-76
2023/06/21 08:51:07;;;;;;;;;;;;;;;47.73;30.71;100552.28;4931569;27;98288;-73
2023/06/21 08:53:50;;;;;;;;;;;;;;;48.09;30.60;100560.97;4935498;28;108520;-73
2023/06/21 08:56:20;;;;;;;;;;;;;;;47.85;30.63;100558.72;4947978;28;99775;-76
2023/06/21 08:58:52;;;;;;;;;;;;;;;47.84;30.67;100557.16;4933503;27;97943;-75
2023/06/21 09:01:19;;;;;;;;;;;;;;;48.70;30.14;100559.00;4930367;27;98071;-74
2023/06/21 09:03:57;;;;;;;;;;;;;;;49.49;29.41;100556.22;4930059;27;108507;-76
2023/06/21 09:06:24;;;;;;;;;;;;;;;47.92;30.80;100561.03;4947149;27;98811;-77
2023/06/21 09:08:52;;;;;;;;;;;;;;;48.08;30.83;100562.25;4932735;28;98132;-76
2023/06/21 09:11:19;;;;;;;;;;;;;;;46.30;32.49;100550.50;4929632;27;97899;-76
2023/06/21 09:13:45;;;;;;;;;;;;;;;47.89;30.59;100556.34;4948932;27;98304;-76
2023/06/21 09:16:13;;;;;;;;;;;;;;;48.70;29.96;100550.41;4944754;28;101287;-75
2023/06/21 09:18:39;;;;;;;;;;;;;;;49.22;29.73;100555.19;4961445;27;98553;-76
2023/06/21 09:21:08;;;;;;;;;;;;;;;48.89;29.96;100554.97;4938947;28;97956;-76
2023/06/21 09:23:38;;;;;;;;;;;;;;;48.17;30.68;100556.22;4962181;28;98918;-76
2023/06/21 09:26:04;;;;;;;;;;;;;;;47.72;31.31;100549.97;4947611;27;97872;-73
2023/06/21 09:28:30;;;;;;;;;;;;;;;47.58;31.53;100543.22;4931252;28;98136;-75
2023/06/21 09:30:57;;;;;;;;;;;;;;;47.68;31.08;100547.34;4944073;27;99200;-76
2023/06/21 09:33:27;;;;;;;;;;;;;;;46.84;32.14;100541.75;4968245;27;98092;-75
2023/06/21 09:35:53;;;;;;;;;;;;;;;46.15;32.39;100545.00;4948355;28;100156;-75
2023/06/21 09:38:26;;;;;;;;;;;;;;;44.94;33.24;100545.34;4931574;27;98279;-76
2023/06/21 09:40:52;;;;;;;;;;;;;;;47.27;30.99;100547.94;4931073;27;99698;-73
2023/06/21 09:43:20;;;;;;;;;;;;;;;48.29;29.87;100560.56;4945204;28;98346;-77
2023/06/21 09:46:18;;;;;;;;;;;;;;;49.02;29.68;100559.28;4927548;27;98499;-74
2023/06/21 09:48:45;;;;;;;;;;;;;;;49.77;29.26;100558.75;4903788;27;98099;-74
2023/06/21 09:51:11;;;;;;;;;;;;;;;47.98;30.85;100549.56;4931765;28;105940;-74
2023/06/21 09:53:41;;;;;;;;;;;;;;;46.41;31.82;100553.38;4949380;28;98139;-75
2023/06/21 09:56:07;;;;;;;;;;;;;;;48.68;29.94;100556.69;4934710;28;99313;-75
2023/06/21 09:58:36;;;;;;;;;;;;;;;49.13;29.69;100562.84;4954762;28;100523;-76
2023/06/21 10:01:06;;;;;;;;;;;;;;;45.78;32.36;100557.25;4931521;28;98388;-74
2023/06/21 10:03:33;;;;;;;;;;;;;;;46.10;32.09;100557.91;4926105;28;100094;-74
2023/06/21 10:06:01;;;;;;;;;;;;;;;44.52;33.07;100563.78;4933983;28;110723;-75
2023/06/21 10:08:28;;;;;;;;;;;;;;;47.23;30.33;100571.03;4931703;27;98529;-76
2023/06/21 10:10:54;;;;;;;;;;;;;;;44.09;33.53;100563.56;4940850;27;98115;-74
2023/06/21 10:13:33;;;;;;;;;;;;;;;44.72;32.43;100554.44;4924661;28;98276;-74
2023/06/21 10:16:00;;;;;;;;;;;;;;;46.68;30.38;100552.63;4959265;27;98221;-74
2023/06/21 10:18:27;;;;;;;;;;;;;;;47.51;30.22;100555.94;4933148;28;98264;-74
2023/06/21 10:20:57;;;;;;;;;;;;;;;48.16;29.70;100554.69;4930973;28;98365;-74
2023/06/21 10:23:27;;;;;;;;;;;;;;;48.56;29.65;100556.00;4947280;27;98190;-75
2023/06/21 10:25:53;;;;;;;;;;;;;;;48.21;29.96;100553.09;4936163;27;98507;-75
2023/06/21 10:28:21;;;;;;;;;;;;;;;47.72;30.66;100549.97;4947830;28;98044;-76
2023/06/21 10:30:48;;;;;;;;;;;;;;;48.47;29.77;100544.91;4930876;27;126008;-76
2023/06/21 10:33:15;;;;;;;;;;;;;;;48.80;29.81;100557.38;4930783;27;99613;-75
2023/06/21 10:35:45;;;;;;;;;;;;;;;49.23;29.66;100554.66;4929824;28;98122;-77
2023/06/21 10:38:34;;;;;;;;;;;;;;;49.46;29.41;100538.00;4929602;27;98655;-75
2023/06/21 10:41:01;;;;;;;;;;;;;;;47.42;31.17;100548.47;4969683;27;98079;-75
2023/06/21 10:43:27;;;;;;;;;;;;;;;46.39;32.32;100542.50;4947046;28;99242;-74
2023/06/21 10:45:53;;;;;;;;;;;;;;;47.42;30.64;100548.47;4930945;27;102333;-75
2023/06/21 10:48:19;;;;;;;;;;;;;;;47.39;30.54;100546.66;4931526;28;98452;-76
2023/06/21 10:50:46;;;;;;;;;;;;;;;47.83;30.26;100544.19;4932741;28;98588;-74
2023/06/21 10:53:13;;;;;;;;;;;;;;;47.88;30.02;100549.88;4931658;27;98230;-75
2023/06/21 10:55:41;;;;;;;;;;;;;;;48.58;29.77;100544.81;4932670;28;98406;-76
2023/06/21 10:58:07;;;;;;;;;;;;;;;48.02;30.26;100550.81;4932662;28;98393;-74
2023/06/21 11:00:33;;;;;;;;;;;;;;;46.74;31.66;100552.66;4932930;28;97855;-76
2023/06/21 11:02:59;;;;;;;;;;;;;;;48.17;30.05;100550.53;4933582;27;113071;-75
2023/06/21 11:05:26;;;;;;;;;;;;;;;45.77;31.95;100547.19;4943867;28;98072;-73
2023/06/21 11:08:06;;;;;;;;;;;;;;;43.97;33.48;100548.44;4928431;28;98376;-75
2023/06/21 11:10:46;;;;;;;;;;;;;;;45.29;31.81;100545.09;4942683;28;97992;-76
2023/06/21 11:13:13;;;;;;;;;;;;;;;45.97;30.90;100538.47;4922660;28;98740;-75
2023/06/21 11:15:44;;;;;;;;;;;;;;;45.01;31.94;100548.50;4925172;28;98187;-75
2023/06/21 11:18:18;;;;;;;;;;;;;;;46.65;30.28;100558.59;4928220;28;97910;-74
2023/06/21 11:20:50;;;;;;;;;;;;;;;47.11;29.96;100552.38;4923153;28;98454;-76
2023/06/21 11:23:17;;;;;;;;;;;;;;;47.29;30.21;100547.44;4919828;28;98211;-74
2023/06/21 11:25:53;;;;;;;;;;;;;;;47.20;29.98;100545.63;4923642;28;100135;-76
2023/06/21 11:28:19;;;;;;;;;;;;;;;47.21;30.14;100542.28;4953816;28;98416;-74
2023/06/21 11:31:00;;;;;;;;;;;;;;;47.26;30.16;100548.47;4966095;28;98351;-75
2023/06/21 11:33:45;;;;;;;;;;;;;;;47.26;30.57;100554.97;4957316;28;100365;-73
2023/06/21 11:36:12;;;;;;;;;;;;;;;47.22;30.49;100558.06;4953408;28;99775;-76
2023/06/21 11:38:38;;;;;;;;;;;;;;;47.06;30.42;100560.97;4941293;28;97994;-75
2023/06/21 11:41:40;;;;;;;;;;;;;;;46.90;30.90;100563.28;4927105;28;98663;-77
2023/06/21 11:44:08;;;;;;;;;;;;;;;46.57;31.28;100561.19;4952923;28;98356;-74
2023/06/21 11:46:34;;;;;;;;;;;;;;;46.23;31.56;100557.50;4923232;28;98068;-75
2023/06/21 11:49:00;;;;;;;;;;;;;;;46.04;31.39;100565.69;4930082;28;100399;-77
2023/06/21 11:51:28;;;;;;;;;;;;;;;45.82;31.56;100574.91;4940017;28;99267;-74
2023/06/21 11:53:55;;;;;;;;;;;;;;;45.71;31.65;100571.97;4925832;28;100550;-74
2023/06/21 11:56:21;;;;;;;;;;;;;;;45.63;31.67;100574.53;4922016;28;98067;-75
2023/06/21 11:58:48;;;;;;;;;;;;;;;45.53;31.50;100579.66;4928608;28;103265;-75
2023/06/21 12:01:14;;;;;;;;;;;;;;;45.11;32.01;100591.75;4926795;28;98431;-76
2023/06/21 12:03:42;;;;;;;;;;;;;;;45.06;32.11;100583.97;4940433;28;98985;-74
2023/06/21 12:06:08;;;;;;;;;;;;;;;44.80;32.18;100589.63;4926590;28;98370;-76
2023/06/21 12:08:35;;;;;;;;;;;;;;;44.97;31.75;100590.59;4944832;28;98209;-76
2023/06/21 12:11:05;;;;;;;;;;;;;;;44.98;31.80;100591.34;4956619;28;98331;-76
2023/06/21 12:13:31;;;;;;;;;;;;;;;45.06;31.67;100593.25;4926161;28;100025;-76
2023/06/21 12:16:05;;;;;;;;;;;;;;;44.79;31.80;100599.47;4961122;28;112774;-73
2023/06/21 12:18:32;;;;;;;;;;;;;;;44.58;31.78;100604.41;4930846;28;98957;-77
2023/06/21 12:21:00;;;;;;;;;;;;;;;44.63;31.85;100597.97;4927858;28;115952;-72
2023/06/21 12:23:28;;;;;;;;;;;;;;;44.46;31.68;100609.19;4942930;28;98643;-76
2023/06/21 12:25:56;;;;;;;;;;;;;;;44.53;31.89;100599.41;4938748;28;98526;-76
2023/06/21 12:28:23;;;;;;;;;;;;;;;44.58;31.80;100602.34;4942025;28;107008;-76
2023/06/21 12:30:56;;;;;;;;;;;;;;;44.67;31.44;100617.69;4921183;28;98050;-73
2023/06/21 12:33:24;;;;;;;;;;;;;;;44.07;32.15;100597.34;4941242;28;97868;-76
2023/06/21 12:35:50;;;;;;;;;;;;;;;44.09;31.90;100601.22;4920524;28;98958;-73
2023/06/21 12:38:17;;;;;;;;;;;;;;;44.05;31.92;100599.88;4939190;28;98337;-76
2023/06/21 12:40:59;;;;;;;;;;;;;;;43.34;32.70;100597.06;4939373;28;98274;-76